createdAt,value
2023-04-16T16:31:47.925Z,11.62
2023-04-16T16:34:20.742Z,11.62
2023-04-16T16:36:50.278Z,11.68
2023-04-16T16:39:22.745Z,11.70
2023-04-16T16:41:55.024Z,11.71
2023-04-16T16:44:24.135Z,11.72
2023-04-16T16:46:54.240Z,11.74
2023-04-16T16:49:23.132Z,11.74
2023-04-16T16:51:52.143Z,11.75
2023-04-16T16:54:21.134Z,11.77
2023-04-16T16:56:50.167Z,11.76
2023-04-16T16:59:19.103Z,11.76
2023-04-16T17:01:47.994Z,11.78
2023-04-16T17:04:20.020Z,11.82
2023-04-16T17:06:49.621Z,11.80
2023-04-16T17:09:19.686Z,11.79
2023-04-16T17:11:48.790Z,11.83
2023-04-16T17:14:17.885Z,11.84
2023-04-16T17:16:47.492Z,11.83
2023-04-16T17:19:18.126Z,11.84
2023-04-16T17:21:47.026Z,11.83
2023-04-16T17:24:16.213Z,11.78
2023-04-16T17:26:45.112Z,11.78
2023-04-16T17:29:14.104Z,11.79
2023-04-16T17:31:43.578Z,11.80
2023-04-16T17:34:12.805Z,11.80
2023-04-16T17:36:42.627Z,11.81
2023-04-16T17:39:11.815Z,11.85
2023-04-16T17:41:40.831Z,11.86
2023-04-16T17:44:11.827Z,11.86
2023-04-16T17:46:40.955Z,11.88
2023-04-16T17:49:10.031Z,11.88
2023-04-16T17:51:39.136Z,11.87
2023-04-16T17:54:08.120Z,11.84
2023-04-16T17:56:37.141Z,11.82
2023-04-16T18:00:51.287Z,11.81
2023-04-16T18:03:21.969Z,11.78
2023-04-16T18:13:41.036Z,11.71
2023-04-16T18:16:18.227Z,11.66
2023-04-16T18:18:47.317Z,11.65
2023-04-16T18:21:16.213Z,11.67
2023-04-16T18:23:45.260Z,11.69
2023-04-16T18:26:17.817Z,11.70
2023-04-16T18:28:49.541Z,11.69
2023-04-16T18:31:21.183Z,11.71
2023-04-16T18:33:57.360Z,11.73
2023-04-16T18:36:27.595Z,11.71
2023-04-16T18:39:02.470Z,11.71
2023-04-16T18:41:31.778Z,11.72
2023-04-16T18:44:00.735Z,11.68
2023-04-16T18:46:29.620Z,11.71
2023-04-16T18:48:59.407Z,11.70
2023-04-16T18:51:28.619Z,11.69
2023-04-16T18:53:57.647Z,11.69
2023-04-16T18:56:31.360Z,11.65
2023-04-16T18:59:00.295Z,11.64
2023-04-16T19:01:32.199Z,11.65
2023-04-16T19:04:04.035Z,11.64
2023-04-16T19:06:36.721Z,11.63
2023-04-16T19:09:11.264Z,11.62
2023-04-16T19:11:42.386Z,11.60
2023-04-16T19:14:12.191Z,11.63
2023-04-16T19:16:42.854Z,11.62
2023-04-16T19:19:13.334Z,11.59
2023-04-16T19:21:44.576Z,11.59
2023-04-16T19:24:14.926Z,11.58
2023-04-16T19:26:46.372Z,11.53
2023-04-16T19:29:15.724Z,11.53
2023-04-16T19:31:47.269Z,11.52
2023-04-16T19:34:16.964Z,11.48
2023-04-16T19:36:46.853Z,11.45
2023-04-16T19:39:15.928Z,11.46
2023-04-16T19:41:44.791Z,11.43
2023-04-16T19:44:13.837Z,11.35
2023-04-16T19:46:42.852Z,11.33
2023-04-16T19:49:12.229Z,11.30
2023-04-16T19:51:41.981Z,11.25
2023-04-16T19:54:11.038Z,11.20
2023-04-16T19:56:39.935Z,11.19
2023-04-16T19:59:09.143Z,11.15
2023-04-16T20:01:38.447Z,11.09
2023-04-16T20:04:07.503Z,11.05
2023-04-16T20:06:37.055Z,11.03
2023-04-16T20:09:05.930Z,11.03
2023-04-16T20:11:35.738Z,11.04
2023-04-16T20:14:04.735Z,11.02
2023-04-16T20:16:35.366Z,11.00
2023-04-16T20:19:09.215Z,11.00
2023-04-16T20:21:40.683Z,11.02
2023-04-16T20:24:10.948Z,11.05
2023-04-16T20:26:40.255Z,11.05
2023-04-16T20:29:10.431Z,10.99
2023-04-16T20:31:41.735Z,11.01
2023-04-16T20:34:10.506Z,11.00
2023-04-16T20:36:39.334Z,11.02
2023-04-16T20:39:08.559Z,11.04
2023-04-16T20:41:40.280Z,11.01
2023-04-16T20:44:10.682Z,11.05
2023-04-16T20:46:39.902Z,11.09
2023-04-16T20:49:09.039Z,11.11
2023-04-16T20:51:38.612Z,11.08
2023-04-16T20:54:08.917Z,11.08
2023-04-16T20:56:37.703Z,11.06
2023-04-16T20:59:07.025Z,11.07
2023-04-16T21:01:36.214Z,11.09
2023-04-16T21:04:05.635Z,11.11
2023-04-16T21:06:38.793Z,11.14
2023-04-16T21:09:07.791Z,11.12
2023-04-16T21:11:36.991Z,11.11
2023-04-16T21:14:07.114Z,11.10
2023-04-16T21:16:35.952Z,11.08
2023-04-16T21:19:05.230Z,11.05
2023-04-16T21:21:34.497Z,11.03
2023-04-16T21:24:03.307Z,11.00
2023-04-16T21:26:32.181Z,10.99
2023-04-16T21:29:01.074Z,10.98
2023-04-16T21:31:30.229Z,11.01
2023-04-16T21:33:59.165Z,11.03
2023-04-16T21:36:29.495Z,11.04
2023-04-16T21:38:58.386Z,11.02
2023-04-16T21:41:27.283Z,11.00
2023-04-16T21:43:56.293Z,10.93
2023-04-16T21:46:26.654Z,10.87
2023-04-16T21:48:55.493Z,10.86
2023-04-16T21:51:29.589Z,10.88
2023-04-16T21:53:59.104Z,10.85
2023-04-16T21:56:27.909Z,10.83
2023-04-16T21:58:56.888Z,10.82
2023-04-16T22:01:25.894Z,10.84
2023-04-16T22:03:55.169Z,10.82
2023-04-16T22:06:24.287Z,10.79
2023-04-16T22:08:53.784Z,10.77
2023-04-16T22:11:22.877Z,10.74
2023-04-16T22:13:52.180Z,10.72
2023-04-16T22:16:21.018Z,10.70
2023-04-16T22:18:50.289Z,10.72
2023-04-16T22:21:19.381Z,10.72
2023-04-16T22:23:48.261Z,10.70
2023-04-16T22:26:17.253Z,10.71
2023-04-16T22:28:46.965Z,10.73
2023-04-16T22:31:15.855Z,10.76
2023-04-16T22:33:44.784Z,10.79
2023-04-16T22:36:13.749Z,10.77
2023-04-16T22:38:42.631Z,10.77
2023-04-16T22:41:11.565Z,10.78
2023-04-16T22:43:40.793Z,10.77
2023-04-16T22:46:09.971Z,10.79
2023-04-16T22:48:39.338Z,10.77
2023-04-16T22:51:09.426Z,10.74
2023-04-16T22:53:38.558Z,10.73
2023-04-16T22:56:07.839Z,10.68
2023-04-16T22:58:37.066Z,10.70
2023-04-16T23:01:05.986Z,10.64
2023-04-16T23:03:35.095Z,10.60
2023-04-16T23:06:04.430Z,10.57
2023-04-16T23:08:33.225Z,10.56
2023-04-16T23:11:02.138Z,10.57
2023-04-16T23:13:31.929Z,10.56
2023-04-16T23:16:00.777Z,10.56
2023-04-16T23:18:29.720Z,10.56
2023-04-16T23:20:58.716Z,10.54
2023-04-16T23:23:27.592Z,10.51
2023-04-16T23:25:56.494Z,10.50
2023-04-16T23:28:25.382Z,10.51
2023-04-16T23:30:54.416Z,10.51
2023-04-16T23:33:23.264Z,10.49
2023-04-16T23:35:52.262Z,10.48
2023-04-16T23:38:21.152Z,10.49
2023-04-16T23:40:50.178Z,10.48
2023-04-16T23:43:19.135Z,10.47
2023-04-16T23:45:48.191Z,10.46
2023-04-16T23:48:17.589Z,10.45
2023-04-16T23:50:46.329Z,10.44
2023-04-16T23:53:15.359Z,10.44
2023-04-16T23:55:44.077Z,10.42
2023-04-16T23:58:13.112Z,10.39
